createdAt,value
2022-10-06T00:00:53.404Z,19.20
2022-10-06T00:03:25.257Z,19.20
2022-10-06T00:05:52.267Z,19.20
2022-10-06T00:08:19.672Z,19.20
2022-10-06T00:10:46.799Z,19.30
2022-10-06T00:13:14.042Z,19.30
2022-10-06T00:15:42.101Z,19.30
2022-10-06T00:18:10.150Z,19.40
2022-10-06T00:20:37.144Z,19.40
2022-10-06T00:23:04.231Z,19.40
2022-10-06T00:25:31.342Z,19.50
2022-10-06T00:28:01.503Z,19.50
2022-10-06T00:30:31.336Z,19.50
2022-10-06T00:33:01.332Z,19.50
2022-10-06T00:35:34.986Z,19.50
2022-10-06T00:38:02.355Z,19.50
2022-10-06T00:40:32.288Z,19.50
2022-10-06T00:43:05.622Z,19.50
2022-10-06T00:45:36.057Z,19.50
2022-10-06T00:48:06.958Z,19.60
2022-10-06T00:50:35.831Z,19.60
2022-10-06T00:53:04.879Z,19.60
2022-10-06T00:55:32.892Z,19.70
2022-10-06T00:58:01.274Z,19.70
2022-10-06T01:00:28.666Z,19.70
2022-10-06T01:03:02.156Z,19.70
2022-10-06T01:05:37.135Z,19.80
2022-10-06T01:08:04.207Z,19.80
2022-10-06T01:10:31.261Z,19.80
2022-10-06T01:12:58.275Z,19.80
2022-10-06T01:15:27.661Z,19.80
2022-10-06T01:18:04.464Z,19.70
2022-10-06T01:20:32.202Z,19.80
2022-10-06T01:23:05.348Z,19.80
2022-10-06T01:25:34.487Z,19.80
2022-10-06T01:28:06.159Z,19.80
2022-10-06T01:30:53.655Z,19.80
2022-10-06T01:33:23.515Z,19.80
2022-10-06T01:35:53.188Z,19.80
2022-10-06T01:38:21.976Z,19.70
2022-10-06T01:40:53.242Z,19.70
2022-10-06T01:43:20.942Z,19.70
2022-10-06T01:45:58.274Z,19.70
2022-10-06T01:48:26.502Z,19.70
2022-10-06T01:50:56.091Z,19.60
2022-10-06T01:53:23.264Z,19.70
2022-10-06T01:55:50.249Z,19.60
2022-10-06T01:58:23.232Z,19.70
2022-10-06T02:00:51.112Z,19.60
2022-10-06T02:03:18.218Z,19.60
2022-10-06T02:05:46.030Z,19.60
2022-10-06T02:08:13.766Z,19.60
2022-10-06T02:10:41.767Z,19.50
2022-10-06T02:13:14.865Z,19.50
2022-10-06T02:15:41.899Z,19.50
2022-10-06T02:18:08.964Z,19.50
2022-10-06T02:20:36.316Z,19.50
2022-10-06T02:23:04.468Z,19.50
2022-10-06T02:25:31.669Z,19.50
2022-10-06T02:28:00.856Z,19.50
2022-10-06T02:30:28.232Z,19.50
2022-10-06T02:32:56.224Z,19.50
2022-10-06T02:35:23.537Z,19.40
2022-10-06T02:37:51.043Z,19.40
2022-10-06T02:40:19.959Z,19.40
2022-10-06T02:42:47.120Z,19.40
2022-10-06T02:45:18.019Z,19.40
2022-10-06T02:47:45.104Z,19.40
2022-10-06T02:50:13.160Z,19.40
2022-10-06T02:52:42.824Z,19.40
2022-10-06T02:55:11.055Z,19.40
2022-10-06T02:57:38.590Z,19.50
2022-10-06T03:00:09.834Z,19.40
2022-10-06T03:02:36.882Z,19.40
2022-10-06T03:05:05.874Z,19.40
2022-10-06T03:07:35.090Z,19.40
2022-10-06T03:10:02.075Z,19.30
2022-10-06T03:12:29.618Z,19.30
2022-10-06T03:14:59.534Z,19.30
2022-10-06T03:17:26.877Z,19.30
2022-10-06T03:19:58.119Z,19.30
2022-10-06T03:22:26.118Z,19.30
2022-10-06T03:24:55.550Z,19.30
2022-10-06T03:27:23.170Z,19.30
2022-10-06T03:29:53.592Z,19.30
2022-10-06T03:32:24.201Z,19.20
2022-10-06T03:34:53.395Z,19.30
2022-10-06T03:37:20.717Z,19.20
2022-10-06T03:39:47.949Z,19.20
2022-10-06T03:42:15.488Z,19.20
2022-10-06T03:44:43.204Z,19.20
2022-10-06T03:47:16.063Z,19.20
2022-10-06T03:49:44.327Z,19.20
2022-10-06T03:52:12.908Z,19.20
2022-10-06T03:54:39.841Z,19.20
2022-10-06T03:57:07.291Z,19.20
2022-10-06T03:59:34.843Z,19.20
2022-10-06T04:02:05.532Z,19.10
2022-10-06T04:04:36.524Z,19.20
2022-10-06T04:07:07.989Z,19.20
2022-10-06T04:09:36.803Z,19.20
2022-10-06T04:12:04.303Z,19.20
2022-10-06T04:14:33.730Z,19.20
2022-10-06T04:17:01.679Z,19.20
2022-10-06T04:19:35.252Z,19.20
2022-10-06T04:22:05.915Z,19.20
2022-10-06T04:24:34.205Z,19.20
2022-10-06T04:27:20.455Z,19.30
2022-10-06T04:29:56.461Z,19.30
2022-10-06T04:32:23.452Z,19.30
2022-10-06T04:34:50.588Z,19.30
2022-10-06T04:37:17.640Z,19.40
2022-10-06T04:39:46.251Z,19.40
2022-10-06T04:42:14.117Z,19.40
2022-10-06T04:44:41.258Z,19.50
2022-10-06T04:47:08.286Z,19.50
2022-10-06T04:49:35.386Z,19.50
2022-10-06T04:52:04.092Z,19.50
2022-10-06T04:54:34.140Z,19.50
2022-10-06T04:57:04.078Z,19.50
2022-10-06T04:59:52.484Z,19.60
2022-10-06T05:02:20.772Z,19.60
2022-10-06T05:04:51.330Z,19.60
2022-10-06T05:07:20.139Z,19.60
2022-10-06T05:09:47.104Z,19.60
2022-10-06T05:12:14.273Z,19.60
2022-10-06T05:14:43.113Z,19.60
2022-10-06T05:17:11.037Z,19.60
2022-10-06T05:19:39.381Z,19.60
2022-10-06T05:22:07.701Z,19.60
2022-10-06T05:24:36.386Z,19.60
2022-10-06T05:27:06.674Z,19.60
2022-10-06T05:29:35.008Z,19.70
2022-10-06T05:32:03.629Z,19.70
2022-10-06T05:34:31.328Z,19.70
2022-10-06T05:36:58.454Z,19.70
2022-10-06T05:39:25.585Z,19.70
2022-10-06T05:41:56.431Z,19.70
2022-10-06T05:44:24.594Z,19.70
2022-10-06T05:46:51.594Z,19.70
2022-10-06T05:49:19.725Z,19.70
2022-10-06T05:51:53.760Z,19.60
2022-10-06T05:54:27.340Z,19.60
2022-10-06T05:56:54.718Z,19.60
2022-10-06T05:59:22.587Z,19.50
2022-10-06T06:01:50.424Z,19.50
2022-10-06T06:04:27.940Z,19.50
2022-10-06T06:06:56.943Z,19.50
2022-10-06T06:09:26.427Z,19.50
2022-10-06T06:11:55.604Z,19.40
2022-10-06T06:14:45.915Z,19.40
2022-10-06T06:17:18.145Z,19.40
2022-10-06T06:19:45.561Z,19.30
2022-10-06T06:22:12.873Z,19.30
2022-10-06T06:24:42.896Z,19.30
2022-10-06T06:27:10.963Z,19.20
2022-10-06T06:29:40.259Z,19.20
2022-10-06T06:32:09.736Z,19.20
2022-10-06T06:34:37.502Z,19.10
2022-10-06T06:37:08.450Z,19.10
2022-10-06T06:39:37.528Z,19.10
2022-10-06T06:42:05.274Z,19.00
2022-10-06T06:44:38.789Z,19.00
2022-10-06T06:47:13.147Z,19.00
2022-10-06T06:49:42.719Z,18.90
2022-10-06T06:52:09.748Z,18.90
2022-10-06T06:54:40.615Z,18.80
2022-10-06T06:57:12.311Z,18.80
2022-10-06T06:59:39.690Z,18.70
2022-10-06T07:02:12.138Z,18.70
2022-10-06T07:04:43.888Z,18.70
2022-10-06T07:07:13.941Z,18.70
2022-10-06T07:09:41.974Z,18.60
2022-10-06T07:12:11.709Z,18.60
2022-10-06T07:15:03.018Z,18.50
2022-10-06T07:17:52.038Z,18.50
2022-10-06T07:20:39.350Z,18.50
2022-10-06T07:23:25.565Z,18.50
2022-10-06T07:25:53.973Z,18.50
2022-10-06T07:28:21.895Z,18.50
2022-10-06T07:30:49.524Z,18.50
2022-10-06T07:33:20.012Z,18.50
2022-10-06T07:35:49.427Z,18.50
2022-10-06T07:38:24.599Z,18.40
2022-10-06T07:43:47.106Z,18.40
2022-10-06T07:46:15.588Z,18.50
2022-10-06T07:48:49.222Z,18.40
2022-10-06T07:51:19.030Z,18.40
2022-10-06T07:53:51.167Z,18.50
2022-10-06T07:56:40.559Z,18.50
2022-10-06T07:59:07.854Z,18.50
2022-10-06T08:01:34.946Z,18.50
2022-10-06T08:04:07.075Z,18.60
2022-10-06T08:06:36.428Z,18.60
2022-10-06T08:09:04.141Z,18.60
2022-10-06T08:11:31.941Z,18.60
2022-10-06T08:13:59.132Z,18.60
2022-10-06T08:16:30.275Z,18.60
2022-10-06T08:19:00.088Z,18.70
2022-10-06T08:21:30.379Z,18.70
2022-10-06T08:23:58.891Z,18.70
2022-10-06T08:26:27.767Z,18.80
2022-10-06T08:29:03.234Z,18.80
2022-10-06T08:31:31.574Z,18.80
2022-10-06T08:33:58.912Z,18.90
2022-10-06T08:36:32.069Z,18.90
2022-10-06T08:39:00.534Z,19.00
2022-10-06T08:41:40.380Z,19.00
2022-10-06T08:44:30.405Z,19.00
2022-10-06T08:47:03.527Z,19.00
2022-10-06T08:49:51.833Z,19.10
2022-10-06T08:52:29.118Z,19.10
2022-10-06T08:55:13.356Z,19.10
2022-10-06T08:57:59.485Z,19.20
2022-10-06T09:00:33.404Z,19.30
2022-10-06T09:03:02.834Z,19.30
2022-10-06T09:05:32.186Z,19.40
2022-10-06T09:08:32.824Z,19.50
2022-10-06T09:11:30.264Z,19.60
2022-10-06T09:14:34.184Z,19.90
2022-10-06T09:17:06.715Z,20.40
2022-10-06T09:19:36.524Z,20.80
2022-10-06T09:22:06.832Z,21.40
2022-10-06T09:24:47.000Z,21.80
2022-10-06T09:27:19.884Z,22.10
2022-10-06T09:29:50.904Z,22.30
2022-10-06T09:32:19.774Z,22.50
2022-10-06T09:34:59.997Z,22.70
2022-10-06T09:37:28.317Z,22.90
2022-10-06T09:39:55.939Z,23.00
2022-10-06T09:42:45.070Z,23.20
2022-10-06T09:45:15.200Z,23.30
2022-10-06T09:47:45.233Z,23.30
2022-10-06T09:50:16.457Z,23.20
2022-10-06T09:53:16.732Z,23.10
2022-10-06T09:55:47.905Z,22.90
2022-10-06T09:58:30.311Z,22.70
2022-10-06T10:01:12.310Z,22.70
2022-10-06T10:04:15.520Z,22.60
2022-10-06T10:06:41.077Z,22.60
2022-10-06T10:09:21.680Z,22.60
2022-10-06T10:12:24.698Z,22.50
2022-10-06T10:14:53.244Z,22.40
2022-10-06T10:17:36.021Z,22.30
2022-10-06T10:20:06.016Z,22.20
2022-10-06T10:22:38.842Z,22.20
2022-10-06T10:25:44.721Z,22.20
2022-10-06T10:28:18.993Z,22.30
2022-10-06T10:31:08.335Z,22.30
2022-10-06T10:34:23.892Z,22.50
2022-10-06T10:37:04.284Z,22.60
2022-10-06T10:39:45.174Z,22.90
2022-10-06T10:42:24.805Z,23.20
2022-10-06T10:45:00.831Z,23.40
2022-10-06T10:47:34.608Z,23.50
2022-10-06T10:50:31.973Z,23.60
2022-10-06T10:53:14.196Z,23.60
2022-10-06T10:55:46.904Z,23.60
2022-10-06T10:58:36.860Z,23.80
2022-10-06T11:01:08.253Z,24.00
2022-10-06T11:03:35.310Z,24.20
2022-10-06T11:06:19.883Z,24.40
2022-10-06T11:08:53.224Z,24.60
2022-10-06T11:11:36.809Z,24.60
2022-10-06T11:14:14.554Z,24.70
2022-10-06T11:17:03.939Z,24.70
2022-10-06T11:20:08.838Z,24.70
2022-10-06T11:23:06.953Z,24.80
2022-10-06T11:25:37.708Z,24.90
2022-10-06T11:28:13.728Z,24.90
2022-10-06T11:31:03.854Z,25.00
2022-10-06T11:33:39.489Z,25.00
2022-10-06T11:36:14.117Z,25.00
2022-10-06T11:38:58.548Z,25.00
2022-10-06T11:41:35.361Z,25.00
2022-10-06T11:44:17.825Z,24.80
2022-10-06T11:46:58.004Z,24.80
2022-10-06T11:49:33.853Z,24.60
2022-10-06T11:52:08.472Z,24.50
2022-10-06T11:54:45.800Z,24.40
2022-10-06T11:57:31.023Z,24.40
2022-10-06T12:00:04.832Z,24.40
2022-10-06T12:02:34.945Z,24.30
2022-10-06T12:05:54.900Z,24.20
2022-10-06T12:08:07.365Z,24.10
2022-10-06T12:10:35.568Z,24.10
2022-10-06T12:13:53.279Z,24.00
2022-10-06T12:19:01.131Z,23.90
2022-10-06T12:21:34.439Z,23.90
2022-10-06T12:24:43.883Z,23.80
2022-10-06T12:27:26.412Z,23.80
2022-10-06T12:30:30.807Z,23.90
2022-10-06T12:33:00.607Z,23.80
2022-10-06T12:35:40.234Z,23.80
2022-10-06T12:38:41.572Z,23.70
2022-10-06T12:41:34.724Z,23.70
2022-10-06T12:44:04.354Z,23.70
2022-10-06T12:46:45.253Z,23.70
2022-10-06T12:49:32.096Z,23.60
2022-10-06T12:52:18.629Z,23.50
2022-10-06T12:55:03.263Z,23.50
2022-10-06T12:57:31.386Z,23.40
2022-10-06T12:59:59.123Z,23.30
2022-10-06T13:02:29.173Z,23.30
2022-10-06T13:04:57.382Z,23.20
2022-10-06T13:07:30.578Z,23.20
2022-10-06T13:10:16.103Z,23.20
2022-10-06T13:12:50.347Z,23.20
2022-10-06T13:15:24.038Z,23.10
2022-10-06T13:18:08.972Z,23.10
2022-10-06T13:20:42.570Z,23.10
2022-10-06T13:23:18.597Z,23.10
2022-10-06T13:25:48.580Z,23.10
2022-10-06T13:28:28.003Z,23.10
2022-10-06T13:31:14.962Z,23.10
2022-10-06T13:33:44.895Z,23.10
2022-10-06T13:36:13.562Z,23.10
2022-10-06T13:38:42.115Z,23.10
2022-10-06T13:41:34.808Z,23.10
2022-10-06T13:44:20.386Z,23.10
2022-10-06T13:46:54.054Z,23.00
2022-10-06T13:49:22.262Z,23.00
2022-10-06T13:51:56.932Z,23.00
2022-10-06T13:54:50.805Z,22.90
2022-10-06T13:57:50.757Z,22.80
2022-10-06T14:00:21.848Z,22.80
2022-10-06T14:02:51.947Z,22.70
2022-10-06T14:05:23.673Z,22.60
2022-10-06T14:07:51.281Z,22.50
2022-10-06T14:10:31.671Z,22.50
2022-10-06T14:13:06.316Z,22.50
2022-10-06T14:15:48.084Z,22.40
2022-10-06T14:18:41.199Z,22.40
2022-10-06T14:21:25.395Z,22.40
2022-10-06T14:23:56.519Z,22.30
2022-10-06T14:26:26.876Z,22.30
2022-10-06T14:28:54.777Z,22.30
2022-10-06T14:31:23.704Z,22.30
2022-10-06T14:33:52.747Z,22.30
2022-10-06T14:36:24.289Z,22.20
2022-10-06T14:38:52.286Z,22.20
2022-10-06T14:41:20.358Z,22.10
2022-10-06T14:43:48.082Z,22.10
2022-10-06T14:46:16.014Z,22.10
2022-10-06T14:48:43.345Z,22.00
2022-10-06T14:51:10.671Z,22.00
2022-10-06T14:53:40.815Z,22.00
2022-10-06T14:56:14.621Z,21.90
2022-10-06T14:58:44.342Z,21.90
2022-10-06T15:01:17.012Z,21.90
2022-10-06T15:04:11.403Z,21.80
2022-10-06T15:06:57.816Z,21.80
2022-10-06T15:09:25.061Z,21.70
2022-10-06T15:11:53.823Z,21.70
2022-10-06T15:14:24.408Z,21.70
2022-10-06T15:16:52.403Z,21.60
2022-10-06T15:19:19.345Z,21.60
2022-10-06T15:21:47.119Z,21.50
2022-10-06T15:24:18.927Z,21.50
2022-10-06T15:27:06.126Z,21.50
2022-10-06T15:29:35.226Z,21.40
2022-10-06T15:32:03.810Z,21.40
2022-10-06T15:34:33.571Z,21.30
2022-10-06T15:37:01.190Z,21.30
2022-10-06T15:39:31.140Z,21.20
2022-10-06T15:41:58.788Z,21.20
2022-10-06T15:44:26.517Z,21.20
2022-10-06T15:46:58.635Z,21.10
2022-10-06T15:49:29.702Z,21.10
2022-10-06T15:51:59.800Z,21.10
2022-10-06T15:54:37.987Z,21.00
2022-10-06T15:57:15.013Z,21.00
2022-10-06T15:59:45.367Z,20.90
2022-10-06T16:02:17.395Z,20.90
2022-10-06T16:04:45.762Z,20.90
2022-10-06T16:07:15.804Z,20.80
2022-10-06T16:09:46.605Z,20.80
2022-10-06T16:12:19.019Z,20.80
2022-10-06T16:14:46.768Z,20.80
2022-10-06T16:17:14.957Z,20.80
2022-10-06T16:19:42.396Z,20.70
2022-10-06T16:22:12.860Z,20.70
2022-10-06T16:24:40.270Z,20.60
2022-10-06T16:27:10.879Z,20.60
2022-10-06T16:29:38.134Z,20.60
2022-10-06T16:32:05.129Z,20.50
2022-10-06T16:34:32.916Z,20.50
2022-10-06T16:37:00.026Z,20.40
2022-10-06T16:39:27.875Z,20.30
2022-10-06T16:41:55.250Z,20.30
2022-10-06T16:44:22.422Z,20.20
2022-10-06T16:46:49.715Z,20.10
2022-10-06T16:49:16.891Z,20.00
2022-10-06T16:51:46.165Z,20.00
2022-10-06T16:54:15.407Z,19.90
2022-10-06T16:56:44.935Z,19.90
2022-10-06T16:59:17.558Z,19.80
2022-10-06T17:01:46.197Z,19.70
2022-10-06T17:04:22.171Z,19.70
2022-10-06T17:06:55.034Z,19.50
2022-10-06T17:09:26.565Z,19.50
2022-10-06T17:11:56.237Z,19.40
2022-10-06T17:14:24.663Z,19.40
2022-10-06T17:16:54.479Z,19.30
2022-10-06T17:19:24.537Z,19.20
2022-10-06T17:21:58.325Z,19.10
2022-10-06T17:24:28.407Z,19.10
2022-10-06T17:26:56.666Z,19.00
2022-10-06T17:29:24.832Z,18.90
2022-10-06T17:32:08.634Z,18.90
2022-10-06T17:34:37.027Z,18.80
2022-10-06T17:37:05.045Z,18.70
2022-10-06T17:39:32.396Z,18.70
2022-10-06T17:41:59.467Z,18.60
2022-10-06T17:44:28.676Z,18.50
2022-10-06T17:47:01.023Z,18.50
2022-10-06T17:49:31.310Z,18.40
2022-10-06T17:52:03.119Z,18.40
2022-10-06T17:54:34.584Z,18.40
2022-10-06T17:57:02.313Z,18.30
2022-10-06T17:59:31.312Z,18.30
2022-10-06T18:02:01.534Z,18.20
2022-10-06T18:04:29.344Z,18.20
2022-10-06T18:07:04.991Z,18.20
2022-10-06T18:09:33.294Z,18.10
2022-10-06T18:12:02.980Z,18.10
2022-10-06T18:14:33.711Z,18.00
2022-10-06T18:17:06.302Z,18.00
2022-10-06T18:19:35.665Z,18.00
2022-10-06T18:22:10.268Z,17.90
2022-10-06T18:24:38.745Z,17.90
2022-10-06T18:27:06.647Z,17.80
2022-10-06T18:29:37.162Z,17.80
2022-10-06T18:32:53.431Z,17.70
2022-10-06T18:36:12.099Z,17.70
2022-10-06T18:37:41.771Z,17.60
2022-10-06T18:40:10.239Z,17.60
2022-10-06T18:42:39.266Z,17.50
2022-10-06T18:45:27.620Z,17.40
2022-10-06T18:48:13.443Z,17.40
2022-10-06T18:50:40.688Z,17.30
2022-10-06T18:53:07.876Z,17.30
2022-10-06T18:55:35.658Z,17.20
2022-10-06T18:58:04.915Z,17.20
2022-10-06T19:00:32.150Z,17.10
2022-10-06T19:03:00.276Z,17.10
2022-10-06T19:05:27.314Z,17.10
2022-10-06T19:07:54.770Z,17.00
2022-10-06T19:10:22.216Z,17.00
2022-10-06T19:12:49.843Z,16.90
2022-10-06T19:15:20.810Z,16.90
2022-10-06T19:17:49.872Z,16.90
2022-10-06T19:20:21.890Z,16.80
2022-10-06T19:22:52.162Z,16.80
2022-10-06T19:25:21.913Z,16.70
2022-10-06T19:27:57.127Z,16.70
2022-10-06T19:30:25.146Z,16.60
2022-10-06T19:32:53.472Z,16.60
2022-10-06T19:35:22.366Z,16.60
2022-10-06T19:37:51.553Z,16.60
2022-10-06T19:40:18.676Z,16.50
2022-10-06T19:42:49.593Z,16.50
2022-10-06T19:45:18.214Z,16.50
2022-10-06T19:47:47.395Z,16.40
2022-10-06T19:50:16.377Z,16.40
2022-10-06T19:52:43.695Z,16.30
2022-10-06T19:55:11.059Z,16.30
2022-10-06T19:57:38.137Z,16.20
2022-10-06T20:00:07.294Z,16.20
2022-10-06T20:02:43.142Z,16.20
2022-10-06T20:05:12.728Z,16.20
2022-10-06T20:07:40.722Z,16.10
2022-10-06T20:10:08.293Z,16.10
2022-10-06T20:12:35.435Z,16.00
2022-10-06T20:15:04.250Z,16.00
2022-10-06T20:17:31.439Z,16.00
2022-10-06T20:20:02.733Z,15.90
2022-10-06T20:22:31.790Z,15.90
2022-10-06T20:24:58.976Z,15.90
2022-10-06T20:27:26.165Z,15.80
2022-10-06T20:29:53.886Z,15.80
2022-10-06T20:32:21.391Z,15.80
2022-10-06T20:34:48.897Z,15.70
2022-10-06T20:37:20.515Z,15.70
2022-10-06T20:40:07.412Z,15.70
2022-10-06T20:42:34.381Z,15.70
2022-10-06T20:45:01.673Z,15.60
2022-10-06T20:47:31.417Z,15.70
2022-10-06T20:50:00.538Z,15.60
2022-10-06T20:52:27.832Z,15.60
2022-10-06T20:54:54.879Z,15.60
2022-10-06T20:57:21.901Z,15.60
2022-10-06T20:59:49.142Z,15.50
2022-10-06T21:02:16.330Z,15.50
2022-10-06T21:04:44.570Z,15.50
2022-10-06T21:07:17.671Z,15.50
2022-10-06T21:09:51.228Z,15.50
2022-10-06T21:12:20.730Z,15.40
2022-10-06T21:14:51.941Z,15.40
2022-10-06T21:17:19.480Z,15.40
2022-10-06T21:19:46.538Z,15.40
2022-10-06T21:22:17.219Z,15.40
2022-10-06T21:24:48.026Z,15.40
2022-10-06T21:27:18.822Z,15.30
2022-10-06T21:29:45.952Z,15.30
2022-10-06T21:32:13.355Z,15.30
2022-10-06T21:34:40.577Z,15.30
2022-10-06T21:37:07.837Z,15.30
2022-10-06T21:39:34.983Z,15.20
2022-10-06T21:42:02.449Z,15.20
2022-10-06T21:44:29.656Z,15.20
2022-10-06T21:46:56.926Z,15.20
2022-10-06T21:49:25.439Z,15.20
2022-10-06T21:51:54.470Z,15.20
2022-10-06T21:54:23.189Z,15.20
2022-10-06T21:56:50.743Z,15.20
2022-10-06T21:59:17.903Z,15.10
2022-10-06T22:01:47.079Z,15.10
2022-10-06T22:04:15.141Z,15.10
2022-10-06T22:06:43.879Z,15.10
2022-10-06T22:09:16.816Z,15.10
2022-10-06T22:15:50.581Z,15.10
2022-10-06T22:18:18.025Z,15.10
2022-10-06T22:20:45.213Z,15.00
2022-10-06T22:23:12.293Z,15.00
2022-10-06T22:25:39.391Z,15.00
2022-10-06T22:28:06.688Z,15.00
2022-10-06T22:30:33.889Z,14.90
2022-10-06T22:33:01.753Z,14.90
2022-10-06T22:35:29.146Z,14.90
2022-10-06T22:37:56.825Z,14.90
2022-10-06T22:40:24.016Z,14.90
2022-10-06T22:42:51.260Z,14.90
2022-10-06T22:45:19.142Z,14.90
2022-10-06T22:47:46.823Z,14.80
2022-10-06T22:50:14.242Z,14.80
2022-10-06T22:52:41.903Z,14.80
2022-10-06T22:55:09.390Z,14.80
2022-10-06T22:57:37.400Z,14.70
2022-10-06T23:00:05.389Z,14.70
2022-10-06T23:02:33.199Z,14.70
2022-10-06T23:05:00.447Z,14.70
2022-10-06T23:07:27.667Z,14.60
2022-10-06T23:09:54.845Z,14.60
2022-10-06T23:12:21.943Z,14.60
2022-10-06T23:14:49.418Z,14.50
2022-10-06T23:17:16.713Z,14.50
2022-10-06T23:19:43.812Z,14.50
2022-10-06T23:22:11.074Z,14.40
2022-10-06T23:24:38.776Z,14.40
2022-10-06T23:27:07.413Z,14.40
2022-10-06T23:29:34.840Z,14.40
2022-10-06T23:32:02.137Z,14.40
2022-10-06T23:34:29.337Z,14.40
2022-10-06T23:36:56.540Z,14.30
2022-10-06T23:39:24.154Z,14.30
2022-10-06T23:41:52.245Z,14.20
2022-10-06T23:44:19.355Z,14.20
2022-10-06T23:46:46.604Z,14.20
2022-10-06T23:49:14.869Z,14.20
2022-10-06T23:51:42.870Z,14.20
2022-10-06T23:54:10.154Z,14.10
2022-10-06T23:56:37.305Z,14.10
2022-10-06T23:59:05.832Z,14.10
